Time;durP1;ratioP1;P1;durP2;ratioP2;P2;SDS_P1;SDS_P2;PMS_P1;PMS_P2;Temp;Humidity;BMP_temperature;BMP_pressure;BME280_temperature;BME280_humidity;BME280_pressure;Samples;Min_cycle;Max_cycle;Signal;HPM_P1;HPM_P2
2022/12/31 00:01:20;;;;;;;;;;;21.40;37.30;;;;;;458328;256;1723;-43
2022/12/31 00:03:21;;;;;;;;;;;21.40;37.30;;;;;;466157;252;2219;-43
2022/12/31 00:05:23;;;;;;;;;;;21.50;37.30;;;;;;475978;249;1724;-44
2022/12/31 00:07:24;;;;;;;;;;;21.40;37.20;;;;;;458376;256;1875;-43
2022/12/31 00:09:25;;;;;;;;;;;21.50;37.30;;;;;;466140;252;1918;-43
2022/12/31 00:11:27;;;;;;;;;;;21.40;37.30;;;;;;476072;249;2295;-43
2022/12/31 00:13:28;;;;;;;;;;;21.40;37.40;;;;;;458449;256;2197;-43
2022/12/31 00:15:29;;;;;;;;;;;21.40;37.40;;;;;;465986;252;1903;-44
2022/12/31 00:17:31;;;;;;;;;;;21.40;37.40;;;;;;475915;249;2155;-43
2022/12/31 00:19:32;;;;;;;;;;;21.40;37.40;;;;;;458446;256;1985;-44
2022/12/31 00:21:33;;;;;;;;;;;21.40;37.40;;;;;;465800;252;1683;-43
2022/12/31 00:23:35;;;;;;;;;;;21.40;37.40;;;;;;476019;249;2235;-43
2022/12/31 00:25:36;;;;;;;;;;;21.30;37.40;;;;;;458450;257;1743;-44
2022/12/31 00:27:37;;;;;;;;;;;21.40;37.50;;;;;;465770;252;1504;-43
2022/12/31 00:29:39;;;;;;;;;;;21.30;37.40;;;;;;475902;249;1980;-44
2022/12/31 00:31:40;;;;;;;;;;;21.40;37.40;;;;;;458102;257;2202;-43
2022/12/31 00:33:41;;;;;;;;;;;21.30;37.40;;;;;;466024;252;1955;-43
2022/12/31 00:35:42;;;;;;;;;;;21.30;37.40;;;;;;475952;249;2206;-43
2022/12/31 00:37:44;;;;;;;;;;;21.40;37.40;;;;;;458212;257;1753;-43
2022/12/31 00:39:45;;;;;;;;;;;21.40;37.40;;;;;;465983;252;2218;-44
2022/12/31 00:41:46;;;;;;;;;;;21.40;37.50;;;;;;476036;249;1744;-44
2022/12/31 00:43:48;;;;;;;;;;;21.40;37.40;;;;;;458458;256;2015;-44
2022/12/31 00:45:49;;;;;;;;;;;21.30;37.40;;;;;;466035;252;1732;-43
2022/12/31 00:47:50;;;;;;;;;;;21.40;37.40;;;;;;476041;249;1731;-43
2022/12/31 00:49:52;;;;;;;;;;;21.30;37.50;;;;;;458377;257;1908;-43
2022/12/31 00:51:53;;;;;;;;;;;21.30;37.50;;;;;;466153;252;2149;-44
2022/12/31 00:53:54;;;;;;;;;;;21.30;37.50;;;;;;476121;249;1991;-43
2022/12/31 00:55:56;;;;;;;;;;;21.30;37.60;;;;;;458458;256;1721;-43
2022/12/31 00:57:57;;;;;;;;;;;21.30;37.60;;;;;;466220;252;1748;-43
2022/12/31 00:59:58;;;;;;;;;;;21.30;37.60;;;;;;475935;249;2071;-43
2022/12/31 01:02:00;;;;;;;;;;;21.30;37.50;;;;;;458270;257;1701;-44
2022/12/31 01:04:01;;;;;;;;;;;21.30;37.50;;;;;;465930;252;1684;-43
2022/12/31 01:06:02;;;;;;;;;;;21.30;37.50;;;;;;475914;249;1945;-43
2022/12/31 01:08:04;;;;;;;;;;;21.30;37.60;;;;;;458123;257;1778;-43
2022/12/31 01:10:05;;;;;;;;;;;21.30;37.60;;;;;;465815;252;1799;-43
2022/12/31 01:12:06;;;;;;;;;;;21.30;37.60;;;;;;475776;249;2240;-43
2022/12/31 01:14:08;;;;;;;;;;;21.30;37.60;;;;;;458204;256;1746;-43
2022/12/31 01:16:09;;;;;;;;;;;21.30;37.60;;;;;;465838;252;1730;-43
2022/12/31 01:18:11;;;;;;;;;;;21.30;37.60;;;;;;475837;249;1923;-43
2022/12/31 01:20:12;;;;;;;;;;;21.30;37.60;;;;;;458211;256;2141;-44
2022/12/31 01:22:13;;;;;;;;;;;21.30;37.60;;;;;;465818;252;2084;-43
2022/12/31 01:24:15;;;;;;;;;;;21.30;37.60;;;;;;475922;249;1941;-43
2022/12/31 01:26:16;;;;;;;;;;;21.30;37.60;;;;;;458244;257;1962;-43
2022/12/31 01:28:17;;;;;;;;;;;21.30;37.50;;;;;;465871;252;1965;-43
2022/12/31 01:30:19;;;;;;;;;;;21.30;37.60;;;;;;475907;249;2183;-43
2022/12/31 01:32:20;;;;;;;;;;;21.30;37.60;;;;;;458188;257;2292;-43
2022/12/31 01:34:21;;;;;;;;;;;21.30;37.60;;;;;;465773;252;1713;-43
2022/12/31 01:36:23;;;;;;;;;;;21.30;37.50;;;;;;475948;249;1595;-43
2022/12/31 01:38:24;;;;;;;;;;;21.30;37.60;;;;;;458167;257;1722;-44
2022/12/31 01:40:25;;;;;;;;;;;21.20;37.60;;;;;;465925;252;2029;-44
2022/12/31 01:42:26;;;;;;;;;;;21.30;37.60;;;;;;475936;249;1731;-44
2022/12/31 01:44:28;;;;;;;;;;;21.20;37.70;;;;;;458325;256;2217;-44
2022/12/31 01:46:29;;;;;;;;;;;21.20;37.60;;;;;;465993;252;1801;-43
2022/12/31 01:48:30;;;;;;;;;;;21.20;37.60;;;;;;475932;249;2195;-44
2022/12/31 01:50:32;;;;;;;;;;;21.30;37.60;;;;;;458207;257;2028;-43
2022/12/31 01:52:33;;;;;;;;;;;21.20;37.60;;;;;;466019;252;2174;-43
2022/12/31 01:54:34;;;;;;;;;;;21.30;37.60;;;;;;475897;249;1822;-43
2022/12/31 01:56:36;;;;;;;;;;;21.30;37.60;;;;;;458178;257;1860;-43
2022/12/31 01:58:37;;;;;;;;;;;21.30;37.60;;;;;;465836;252;1718;-43
2022/12/31 02:00:38;;;;;;;;;;;21.30;37.60;;;;;;476112;249;1768;-44
2022/12/31 02:02:40;;;;;;;;;;;21.20;37.60;;;;;;458435;256;1848;-44
2022/12/31 02:04:41;;;;;;;;;;;21.30;37.60;;;;;;466022;252;2123;-43
2022/12/31 02:06:42;;;;;;;;;;;21.30;37.60;;;;;;476024;249;1856;-43
2022/12/31 02:08:44;;;;;;;;;;;21.30;37.60;;;;;;458394;256;2089;-44
2022/12/31 02:10:45;;;;;;;;;;;21.20;37.70;;;;;;466117;252;2047;-43
2022/12/31 02:12:46;;;;;;;;;;;21.30;37.70;;;;;;476120;249;2256;-43
2022/12/31 02:14:48;;;;;;;;;;;21.20;37.60;;;;;;458427;257;1677;-44
2022/12/31 02:16:49;;;;;;;;;;;21.30;37.70;;;;;;466216;252;1727;-44
2022/12/31 02:18:50;;;;;;;;;;;21.20;37.60;;;;;;476185;249;1920;-44
2022/12/31 02:20:52;;;;;;;;;;;21.30;37.70;;;;;;458320;257;1739;-44
2022/12/31 02:22:53;;;;;;;;;;;21.20;37.60;;;;;;466003;252;1852;-43
2022/12/31 02:24:54;;;;;;;;;;;21.30;37.60;;;;;;476013;249;1780;-43
2022/12/31 02:26:56;;;;;;;;;;;21.20;37.60;;;;;;458199;257;1998;-43
2022/12/31 02:28:57;;;;;;;;;;;21.20;37.60;;;;;;465796;252;1873;-43
2022/12/31 02:30:58;;;;;;;;;;;21.20;37.60;;;;;;475957;249;1696;-43
2022/12/31 02:33:00;;;;;;;;;;;21.30;37.60;;;;;;458162;257;2182;-43
2022/12/31 02:35:01;;;;;;;;;;;21.20;37.70;;;;;;465808;252;1619;-43
2022/12/31 02:37:02;;;;;;;;;;;21.20;37.70;;;;;;475837;249;1676;-43
2022/12/31 02:39:04;;;;;;;;;;;21.20;37.70;;;;;;458129;257;1719;-43
2022/12/31 02:41:05;;;;;;;;;;;21.20;37.70;;;;;;465820;252;1965;-43
2022/12/31 02:43:06;;;;;;;;;;;21.20;37.70;;;;;;475898;249;1896;-43
2022/12/31 02:45:07;;;;;;;;;;;21.20;37.80;;;;;;458212;256;1892;-43
2022/12/31 02:47:09;;;;;;;;;;;21.20;37.80;;;;;;465853;252;1953;-43
2022/12/31 02:49:10;;;;;;;;;;;21.20;37.70;;;;;;475861;249;2028;-44
2022/12/31 02:51:11;;;;;;;;;;;21.20;37.70;;;;;;458223;256;1920;-43
2022/12/31 02:53:13;;;;;;;;;;;21.20;37.80;;;;;;465821;252;2196;-43
2022/12/31 02:55:14;;;;;;;;;;;21.20;37.80;;;;;;475911;249;2313;-43
2022/12/31 02:57:15;;;;;;;;;;;21.20;37.70;;;;;;458275;256;1941;-43
2022/12/31 03:04:30;;;;;;;;;;;21.20;37.70;;;;;;458370;259;2224;-43
2022/12/31 03:06:02;;;;;;;;;;;21.30;37.60;;;;;;464740;255;2188;-44
2022/12/31 03:08:03;;;;;;;;;;;21.50;37.10;;;;;;475884;249;2171;-44
2022/12/31 03:10:04;;;;;;;;;;;21.70;36.80;;;;;;458211;256;1927;-44
2022/12/31 03:14:25;;;;;;;;;;;22.00;36.30;;;;;;475895;250;2116;-44
2022/12/31 03:16:26;;;;;;;;;;;22.10;36.00;;;;;;458002;257;1730;-44
2022/12/31 03:22:26;;;;;;;;;;;22.30;35.90;;;;;;465809;252;1695;-43
2022/12/31 03:22:56;;;;;;;;;;;22.40;35.60;;;;;;458005;259;1736;-43
2022/12/31 03:27:16;;;;;;;;;;;22.50;35.30;;;;;;475640;250;1737;-44
2022/12/31 03:29:18;;;;;;;;;;;22.60;35.30;;;;;;458206;256;2224;-44
2022/12/31 03:31:19;;;;;;;;;;;22.70;35.20;;;;;;465683;252;1560;-43
2022/12/31 03:33:20;;;;;;;;;;;22.70;35.10;;;;;;475767;249;2187;-44
2022/12/31 03:35:22;;;;;;;;;;;22.70;35.10;;;;;;458123;257;1797;-44
2022/12/31 03:37:23;;;;;;;;;;;22.80;35.10;;;;;;465593;252;1727;-43
2022/12/31 03:39:24;;;;;;;;;;;22.80;35.00;;;;;;475867;249;1865;-43
2022/12/31 03:41:26;;;;;;;;;;;22.80;34.90;;;;;;457969;257;1754;-44
2022/12/31 03:43:27;;;;;;;;;;;22.90;34.90;;;;;;465730;252;1730;-44
2022/12/31 03:45:29;;;;;;;;;;;22.90;34.80;;;;;;458116;257;1959;-44
2022/12/31 03:47:30;;;;;;;;;;;22.90;34.80;;;;;;475718;249;2243;-44
2022/12/31 03:49:31;;;;;;;;;;;23.00;34.80;;;;;;458210;257;1651;-43
2022/12/31 03:51:33;;;;;;;;;;;23.00;34.70;;;;;;465693;252;1736;-44
2022/12/31 03:53:34;;;;;;;;;;;23.00;34.60;;;;;;475851;249;2179;-44
2022/12/31 03:55:35;;;;;;;;;;;23.10;34.60;;;;;;458157;256;2109;-44
2022/12/31 03:57:37;;;;;;;;;;;23.10;34.60;;;;;;465625;252;1763;-43
2022/12/31 03:59:38;;;;;;;;;;;23.10;34.60;;;;;;475852;249;1749;-44
2022/12/31 04:01:39;;;;;;;;;;;23.10;34.50;;;;;;457988;256;1739;-43
2022/12/31 04:03:41;;;;;;;;;;;23.20;34.50;;;;;;465786;252;1799;-43
2022/12/31 04:05:42;;;;;;;;;;;23.20;34.50;;;;;;475949;249;1725;-44
2022/12/31 04:07:43;;;;;;;;;;;23.20;34.50;;;;;;458143;256;1752;-43
2022/12/31 04:09:45;;;;;;;;;;;23.20;34.40;;;;;;465997;252;1871;-43
2022/12/31 04:11:46;;;;;;;;;;;23.20;34.40;;;;;;475735;249;1660;-44
2022/12/31 04:13:47;;;;;;;;;;;23.30;34.50;;;;;;458352;256;2194;-44
2022/12/31 04:15:49;;;;;;;;;;;23.30;34.40;;;;;;465805;252;1846;-44
2022/12/31 04:17:50;;;;;;;;;;;23.30;34.40;;;;;;475775;249;1731;-43
2022/12/31 04:19:51;;;;;;;;;;;23.30;34.40;;;;;;458257;257;1831;-44
2022/12/31 04:21:53;;;;;;;;;;;23.30;34.30;;;;;;465785;252;1751;-43
2022/12/31 04:23:54;;;;;;;;;;;23.30;34.30;;;;;;475952;249;1827;-43
2022/12/31 04:25:56;;;;;;;;;;;23.40;34.40;;;;;;458108;256;2126;-44
2022/12/31 04:27:57;;;;;;;;;;;23.40;34.40;;;;;;465666;252;2199;-44
2022/12/31 04:29:58;;;;;;;;;;;23.40;34.30;;;;;;475758;249;1704;-44
2022/12/31 04:32:00;;;;;;;;;;;23.40;34.30;;;;;;457926;257;1832;-44
2022/12/31 04:34:01;;;;;;;;;;;23.40;34.30;;;;;;465713;252;2173;-44
2022/12/31 04:36:02;;;;;;;;;;;23.40;34.30;;;;;;475776;249;2151;-44
2022/12/31 04:38:04;;;;;;;;;;;23.40;34.30;;;;;;458011;257;1737;-44
2022/12/31 04:40:05;;;;;;;;;;;23.40;34.20;;;;;;465739;252;2232;-44
2022/12/31 04:42:06;;;;;;;;;;;23.50;34.20;;;;;;475723;249;1766;-44
2022/12/31 04:44:08;;;;;;;;;;;23.50;34.20;;;;;;457997;256;1719;-44
2022/12/31 04:46:09;;;;;;;;;;;23.50;34.20;;;;;;465829;252;2444;-44
2022/12/31 04:48:10;;;;;;;;;;;23.50;34.20;;;;;;475682;249;1998;-44
2022/12/31 04:50:11;;;;;;;;;;;23.50;34.30;;;;;;458056;256;1743;-44
2022/12/31 04:52:13;;;;;;;;;;;23.40;34.30;;;;;;465671;252;1720;-43
2022/12/31 04:54:14;;;;;;;;;;;23.40;34.40;;;;;;475761;249;2191;-44
2022/12/31 04:56:16;;;;;;;;;;;23.20;34.80;;;;;;458207;257;1735;-44
2022/12/31 04:58:17;;;;;;;;;;;22.90;35.10;;;;;;465809;252;2181;-43
2022/12/31 05:00:18;;;;;;;;;;;22.70;35.40;;;;;;475864;249;1772;-43
2022/12/31 05:02:19;;;;;;;;;;;22.60;35.70;;;;;;458316;257;1731;-44
2022/12/31 05:04:21;;;;;;;;;;;22.50;35.90;;;;;;465908;252;1864;-43
2022/12/31 05:06:22;;;;;;;;;;;22.40;36.00;;;;;;476182;249;1717;-43
2022/12/31 05:08:23;;;;;;;;;;;22.30;36.20;;;;;;458242;257;2247;-44
2022/12/31 05:10:25;;;;;;;;;;;22.30;36.30;;;;;;465932;252;1728;-43
2022/12/31 05:12:26;;;;;;;;;;;22.10;36.40;;;;;;475999;249;1904;-44
2022/12/31 05:14:27;;;;;;;;;;;22.10;36.60;;;;;;458381;257;2194;-43
2022/12/31 05:16:29;;;;;;;;;;;22.10;36.70;;;;;;466054;252;1978;-43
2022/12/31 05:18:30;;;;;;;;;;;22.10;36.70;;;;;;476057;249;1829;-43
2022/12/31 05:20:31;;;;;;;;;;;22.00;36.70;;;;;;458249;257;1745;-43
2022/12/31 05:22:33;;;;;;;;;;;22.00;36.80;;;;;;465944;252;2461;-43
2022/12/31 05:24:34;;;;;;;;;;;22.00;36.90;;;;;;476039;249;2184;-44
2022/12/31 05:26:35;;;;;;;;;;;21.90;37.00;;;;;;458388;256;1937;-44
2022/12/31 05:28:37;;;;;;;;;;;21.90;37.00;;;;;;466168;252;1685;-44
2022/12/31 05:30:38;;;;;;;;;;;21.90;37.10;;;;;;476251;249;2067;-43
2022/12/31 05:32:39;;;;;;;;;;;21.80;37.10;;;;;;458439;257;1741;-43
2022/12/31 05:34:41;;;;;;;;;;;21.90;37.20;;;;;;466050;252;2189;-43
2022/12/31 05:36:42;;;;;;;;;;;21.80;37.10;;;;;;476132;249;2161;-44
2022/12/31 05:38:43;;;;;;;;;;;21.80;37.00;;;;;;458649;256;1688;-43
2022/12/31 05:40:45;;;;;;;;;;;21.80;37.10;;;;;;465951;252;2295;-43
2022/12/31 05:42:46;;;;;;;;;;;21.80;37.20;;;;;;475958;249;1683;-43
2022/12/31 05:44:47;;;;;;;;;;;21.70;37.20;;;;;;458355;256;1723;-43
2022/12/31 05:46:49;;;;;;;;;;;21.70;37.30;;;;;;465808;249;1739;-43
2022/12/31 05:48:50;;;;;;;;;;;21.80;37.30;;;;;;475752;249;1738;-43
2022/12/31 05:50:51;;;;;;;;;;;21.70;37.20;;;;;;458044;256;1761;-44
2022/12/31 05:52:52;;;;;;;;;;;21.70;37.20;;;;;;465707;252;1712;-43
2022/12/31 05:54:54;;;;;;;;;;;21.70;37.30;;;;;;475778;249;2243;-44
2022/12/31 05:56:55;;;;;;;;;;;21.70;37.40;;;;;;458042;257;1782;-43
2022/12/31 05:58:57;;;;;;;;;;;21.60;37.40;;;;;;465817;252;1758;-43
2022/12/31 06:00:58;;;;;;;;;;;21.60;37.40;;;;;;475866;249;2257;-44
2022/12/31 06:02:59;;;;;;;;;;;21.60;37.40;;;;;;458118;256;1813;-44
2022/12/31 06:05:00;;;;;;;;;;;21.60;37.50;;;;;;465699;252;1628;-43
2022/12/31 06:07:02;;;;;;;;;;;21.60;37.50;;;;;;475761;249;1721;-43
2022/12/31 06:09:03;;;;;;;;;;;21.60;37.50;;;;;;458055;257;1724;-44
2022/12/31 06:11:04;;;;;;;;;;;21.60;37.60;;;;;;465737;252;2050;-43
2022/12/31 06:13:06;;;;;;;;;;;21.60;37.60;;;;;;475758;249;1853;-43
2022/12/31 06:15:07;;;;;;;;;;;21.50;37.60;;;;;;458130;257;2201;-43
2022/12/31 06:17:08;;;;;;;;;;;21.50;37.60;;;;;;465782;252;2041;-44
2022/12/31 06:19:10;;;;;;;;;;;21.50;37.60;;;;;;475814;249;1798;-43
2022/12/31 06:21:11;;;;;;;;;;;21.50;37.60;;;;;;458192;257;1941;-43
2022/12/31 06:23:12;;;;;;;;;;;21.50;37.60;;;;;;465891;252;2193;-43
2022/12/31 06:25:14;;;;;;;;;;;21.60;37.60;;;;;;475928;249;1768;-43
2022/12/31 06:27:15;;;;;;;;;;;21.50;37.60;;;;;;458186;257;1925;-44
2022/12/31 06:29:17;;;;;;;;;;;21.50;37.60;;;;;;466018;252;2055;-43
2022/12/31 06:31:18;;;;;;;;;;;21.50;37.60;;;;;;476020;249;1836;-44
2022/12/31 06:33:19;;;;;;;;;;;21.50;37.60;;;;;;458336;256;1671;-43
2022/12/31 06:35:21;;;;;;;;;;;21.50;37.70;;;;;;465883;252;2205;-43
2022/12/31 06:37:22;;;;;;;;;;;21.50;37.70;;;;;;475801;249;2184;-44
2022/12/31 06:39:23;;;;;;;;;;;21.50;37.70;;;;;;458312;256;2659;-43
2022/12/31 06:41:25;;;;;;;;;;;21.50;37.70;;;;;;465744;252;1710;-43
2022/12/31 06:43:26;;;;;;;;;;;21.50;37.70;;;;;;475885;249;1821;-43
2022/12/31 06:45:27;;;;;;;;;;;21.50;37.70;;;;;;458168;256;1686;-43
2022/12/31 06:47:29;;;;;;;;;;;21.50;37.70;;;;;;465717;252;1673;-43
2022/12/31 06:49:30;;;;;;;;;;;21.50;37.60;;;;;;475834;249;1678;-44
2022/12/31 06:51:31;;;;;;;;;;;21.50;37.70;;;;;;457973;256;1996;-43
2022/12/31 06:53:33;;;;;;;;;;;21.50;37.70;;;;;;465814;252;2012;-44
2022/12/31 06:55:34;;;;;;;;;;;21.40;37.70;;;;;;475782;249;2208;-44
2022/12/31 06:57:35;;;;;;;;;;;21.40;37.70;;;;;;458085;256;1721;-44
2022/12/31 06:59:37;;;;;;;;;;;21.40;37.80;;;;;;465729;252;2076;-43
2022/12/31 07:01:38;;;;;;;;;;;21.40;37.70;;;;;;475946;249;1955;-43
2022/12/31 07:03:39;;;;;;;;;;;21.40;37.80;;;;;;458101;257;1952;-43
2022/12/31 07:05:41;;;;;;;;;;;21.40;37.80;;;;;;465685;252;1869;-43
2022/12/31 07:07:42;;;;;;;;;;;21.40;37.80;;;;;;475821;249;1692;-43
2022/12/31 07:09:43;;;;;;;;;;;21.40;37.70;;;;;;458176;256;1776;-43
2022/12/31 07:11:45;;;;;;;;;;;21.40;37.80;;;;;;465933;252;1917;-43
2022/12/31 07:13:46;;;;;;;;;;;21.40;37.80;;;;;;475892;249;1689;-44
2022/12/31 07:15:47;;;;;;;;;;;21.40;37.80;;;;;;458177;257;2194;-43
2022/12/31 07:17:48;;;;;;;;;;;21.40;37.90;;;;;;465887;252;1690;-43
2022/12/31 07:19:50;;;;;;;;;;;21.40;37.90;;;;;;475929;249;1846;-43
2022/12/31 07:21:51;;;;;;;;;;;21.40;37.80;;;;;;458221;256;1852;-44
2022/12/31 07:23:52;;;;;;;;;;;21.40;37.80;;;;;;465809;252;1914;-44
2022/12/31 07:25:54;;;;;;;;;;;21.40;37.90;;;;;;475876;249;1819;-43
2022/12/31 07:27:55;;;;;;;;;;;21.30;37.90;;;;;;457640;256;1702;-43
2022/12/31 07:29:57;;;;;;;;;;;21.30;37.90;;;;;;465038;252;2670;-43
2022/12/31 07:31:58;;;;;;;;;;;21.40;37.90;;;;;;475365;249;1579;-44
2022/12/31 07:33:59;;;;;;;;;;;21.30;37.90;;;;;;457547;257;2003;-43
2022/12/31 07:36:01;;;;;;;;;;;21.30;37.90;;;;;;465075;252;2197;-43
2022/12/31 07:38:02;;;;;;;;;;;21.30;37.90;;;;;;475428;249;1375;-43
2022/12/31 07:40:03;;;;;;;;;;;21.40;37.90;;;;;;457757;255;1971;-43
2022/12/31 07:42:05;;;;;;;;;;;21.30;37.90;;;;;;465701;252;2213;-43
2022/12/31 07:44:06;;;;;;;;;;;21.30;37.90;;;;;;475790;249;1916;-43
2022/12/31 07:46:07;;;;;;;;;;;21.30;38.00;;;;;;458251;256;1856;-43
2022/12/31 07:48:09;;;;;;;;;;;21.30;38.00;;;;;;465933;252;1943;-44
2022/12/31 07:50:10;;;;;;;;;;;21.30;38.10;;;;;;475905;249;1669;-43
2022/12/31 07:52:11;;;;;;;;;;;21.30;38.10;;;;;;458270;257;1911;-44
2022/12/31 07:54:12;;;;;;;;;;;21.30;37.90;;;;;;465920;252;1923;-44
2022/12/31 07:56:14;;;;;;;;;;;21.30;38.00;;;;;;475961;249;2199;-44
2022/12/31 07:58:15;;;;;;;;;;;21.30;37.90;;;;;;458252;257;2144;-43
2022/12/31 08:00:16;;;;;;;;;;;21.30;38.00;;;;;;465976;252;1779;-44
2022/12/31 08:02:18;;;;;;;;;;;21.30;38.00;;;;;;475719;249;2120;-43
2022/12/31 08:04:19;;;;;;;;;;;21.30;38.00;;;;;;458234;256;1730;-43
2022/12/31 08:06:20;;;;;;;;;;;21.30;38.00;;;;;;465650;252;2012;-44
2022/12/31 08:08:22;;;;;;;;;;;21.30;38.10;;;;;;475738;249;1727;-43
2022/12/31 08:10:25;;;;;;;;;;;21.20;38.00;;;;;;458208;256;2034;-43
2022/12/31 08:12:26;;;;;;;;;;;21.30;38.10;;;;;;465618;252;2212;-43
2022/12/31 08:14:27;;;;;;;;;;;21.30;38.10;;;;;;475891;249;2209;-43
2022/12/31 08:16:29;;;;;;;;;;;21.30;38.10;;;;;;458034;257;1888;-43
2022/12/31 08:18:30;;;;;;;;;;;21.30;38.00;;;;;;465874;252;1950;-44
2022/12/31 08:20:31;;;;;;;;;;;21.30;38.00;;;;;;475977;249;2249;-44
2022/12/31 08:22:33;;;;;;;;;;;21.30;38.00;;;;;;458194;257;1740;-43
2022/12/31 08:24:34;;;;;;;;;;;21.30;38.00;;;;;;465979;252;1910;-44
2022/12/31 08:26:36;;;;;;;;;;;21.30;38.00;;;;;;475774;249;1832;-43
2022/12/31 08:28:37;;;;;;;;;;;21.30;38.10;;;;;;458200;257;1795;-43
2022/12/31 08:30:38;;;;;;;;;;;21.30;38.10;;;;;;465780;252;2144;-43
2022/12/31 08:32:40;;;;;;;;;;;21.30;38.20;;;;;;475807;249;2126;-44
2022/12/31 08:34:41;;;;;;;;;;;21.30;38.10;;;;;;458167;256;2209;-44
2022/12/31 08:36:42;;;;;;;;;;;21.30;38.10;;;;;;465677;252;1630;-43
2022/12/31 08:38:44;;;;;;;;;;;21.30;38.10;;;;;;475994;249;1565;-44
2022/12/31 08:40:45;;;;;;;;;;;21.30;38.10;;;;;;458272;256;2146;-43
2022/12/31 08:42:46;;;;;;;;;;;21.30;38.00;;;;;;466010;252;2200;-43
2022/12/31 08:44:48;;;;;;;;;;;21.30;38.10;;;;;;475973;249;2100;-44
2022/12/31 08:46:49;;;;;;;;;;;21.30;38.10;;;;;;458208;256;1736;-43
2022/12/31 08:48:50;;;;;;;;;;;21.20;38.10;;;;;;465987;252;1708;-43
2022/12/31 08:50:52;;;;;;;;;;;21.30;38.10;;;;;;475821;249;1939;-43
2022/12/31 08:52:53;;;;;;;;;;;21.30;38.10;;;;;;458155;257;2032;-43
2022/12/31 08:54:54;;;;;;;;;;;21.30;38.00;;;;;;465969;252;2200;-43
2022/12/31 08:56:56;;;;;;;;;;;21.30;38.10;;;;;;475944;249;2010;-44
2022/12/31 08:58:57;;;;;;;;;;;21.30;38.10;;;;;;458390;256;1763;-43
2022/12/31 09:00:58;;;;;;;;;;;21.30;38.10;;;;;;465799;252;1698;-43
2022/12/31 09:03:00;;;;;;;;;;;21.30;38.20;;;;;;475827;249;2200;-43
2022/12/31 09:05:01;;;;;;;;;;;21.20;38.10;;;;;;458058;257;1743;-43
2022/12/31 09:07:02;;;;;;;;;;;21.30;38.20;;;;;;465729;252;1705;-44
2022/12/31 09:09:04;;;;;;;;;;;21.30;38.10;;;;;;475992;249;1859;-43
2022/12/31 09:11:05;;;;;;;;;;;21.30;38.20;;;;;;458272;257;1673;-44
2022/12/31 09:13:06;;;;;;;;;;;21.30;38.20;;;;;;465912;252;1923;-43
2022/12/31 09:15:08;;;;;;;;;;;21.20;38.10;;;;;;475966;249;2172;-43
2022/12/31 09:17:09;;;;;;;;;;;21.30;38.20;;;;;;458338;256;2163;-43
2022/12/31 09:19:10;;;;;;;;;;;21.30;38.20;;;;;;466125;252;1877;-43
2022/12/31 09:21:12;;;;;;;;;;;21.20;38.10;;;;;;475955;249;2201;-44
2022/12/31 09:23:13;;;;;;;;;;;21.30;38.10;;;;;;458329;257;1752;-43
2022/12/31 09:25:15;;;;;;;;;;;21.20;38.10;;;;;;466133;252;1414;-43
2022/12/31 09:27:16;;;;;;;;;;;21.30;38.20;;;;;;475848;249;1955;-43
2022/12/31 09:29:17;;;;;;;;;;;21.30;38.10;;;;;;458517;256;1953;-43
2022/12/31 09:31:18;;;;;;;;;;;21.30;38.10;;;;;;465795;252;2299;-43
2022/12/31 09:33:20;;;;;;;;;;;21.20;38.10;;;;;;475992;249;2312;-43
2022/12/31 09:35:21;;;;;;;;;;;21.20;38.20;;;;;;458335;256;2265;-43
2022/12/31 09:37:22;;;;;;;;;;;21.20;38.20;;;;;;465764;252;1899;-44
2022/12/31 09:39:24;;;;;;;;;;;21.20;38.20;;;;;;475957;249;1752;-43
2022/12/31 09:41:25;;;;;;;;;;;21.20;38.20;;;;;;458138;256;1943;-43
2022/12/31 09:43:26;;;;;;;;;;;21.20;38.30;;;;;;465705;252;1829;-43
2022/12/31 09:45:28;;;;;;;;;;;21.30;38.10;;;;;;475822;249;1736;-44
2022/12/31 09:47:29;;;;;;;;;;;21.50;37.70;;;;;;458070;257;1744;-44
2022/12/31 09:49:30;;;;;;;;;;;21.70;37.30;;;;;;465891;252;1969;-44
2022/12/31 09:51:32;;;;;;;;;;;21.90;37.00;;;;;;475829;249;1787;-44
2022/12/31 09:53:33;;;;;;;;;;;22.10;36.80;;;;;;458340;256;1888;-43
2022/12/31 09:55:34;;;;;;;;;;;22.20;36.50;;;;;;465934;252;2197;-43
2022/12/31 09:57:36;;;;;;;;;;;22.30;36.40;;;;;;475884;249;1705;-44
2022/12/31 09:59:37;;;;;;;;;;;22.30;36.20;;;;;;458557;256;1753;-43
2022/12/31 10:01:39;;;;;;;;;;;22.40;36.10;;;;;;465868;252;1993;-44
2022/12/31 10:03:40;;;;;;;;;;;22.50;36.00;;;;;;476077;249;1738;-44
2022/12/31 10:05:41;;;;;;;;;;;22.50;35.90;;;;;;458318;256;1760;-43
2022/12/31 10:07:43;;;;;;;;;;;22.60;35.80;;;;;;465917;252;1862;-44
2022/12/31 10:09:44;;;;;;;;;;;22.70;35.80;;;;;;476019;249;1607;-43
2022/12/31 10:11:45;;;;;;;;;;;22.70;35.70;;;;;;458336;256;2083;-44
2022/12/31 10:13:47;;;;;;;;;;;22.70;35.60;;;;;;465995;252;1740;-44
2022/12/31 10:15:48;;;;;;;;;;;22.80;35.60;;;;;;476037;249;2200;-43
2022/12/31 10:17:49;;;;;;;;;;;22.80;35.50;;;;;;458273;256;1735;-43
2022/12/31 10:19:51;;;;;;;;;;;22.80;35.40;;;;;;465930;252;1715;-43
2022/12/31 10:21:52;;;;;;;;;;;22.90;35.40;;;;;;476072;249;1895;-44
2022/12/31 10:23:54;;;;;;;;;;;22.90;35.30;;;;;;458319;256;1790;-43
2022/12/31 10:25:55;;;;;;;;;;;22.90;35.30;;;;;;465917;252;2539;-43
2022/12/31 10:27:56;;;;;;;;;;;22.90;35.20;;;;;;476111;249;2203;-43
2022/12/31 10:29:57;;;;;;;;;;;23.00;35.20;;;;;;458320;257;1778;-44
2022/12/31 10:31:59;;;;;;;;;;;23.00;35.20;;;;;;466016;252;1785;-44
2022/12/31 10:34:00;;;;;;;;;;;23.00;35.10;;;;;;476122;249;2119;-43
2022/12/31 10:36:01;;;;;;;;;;;23.10;35.10;;;;;;458286;257;2206;-44
2022/12/31 10:38:03;;;;;;;;;;;23.10;35.10;;;;;;465978;252;1723;-43
2022/12/31 10:40:05;;;;;;;;;;;23.10;35.10;;;;;;476111;249;1951;-44
2022/12/31 10:42:06;;;;;;;;;;;23.10;35.10;;;;;;458365;257;1966;-43
2022/12/31 10:44:07;;;;;;;;;;;23.20;35.00;;;;;;466044;252;2082;-43
2022/12/31 10:46:09;;;;;;;;;;;23.20;34.90;;;;;;476085;249;1933;-44
2022/12/31 10:48:10;;;;;;;;;;;23.20;34.90;;;;;;458496;257;1684;-44
2022/12/31 10:50:11;;;;;;;;;;;23.20;34.90;;;;;;466175;252;2215;-44
2022/12/31 10:52:12;;;;;;;;;;;23.30;34.90;;;;;;476167;249;1755;-43
2022/12/31 10:54:14;;;;;;;;;;;23.30;34.90;;;;;;458473;257;1724;-43
2022/12/31 10:56:15;;;;;;;;;;;23.30;34.80;;;;;;466146;252;2173;-43
2022/12/31 10:58:17;;;;;;;;;;;23.30;34.80;;;;;;476196;249;1720;-44
2022/12/31 11:00:18;;;;;;;;;;;23.30;34.80;;;;;;458474;256;1737;-43
2022/12/31 11:02:19;;;;;;;;;;;23.30;34.70;;;;;;465968;252;1963;-44
2022/12/31 11:04:21;;;;;;;;;;;23.30;34.80;;;;;;476207;249;1856;-44
2022/12/31 11:06:22;;;;;;;;;;;23.40;34.80;;;;;;458357;256;1699;-44
2022/12/31 11:08:23;;;;;;;;;;;23.40;34.70;;;;;;465933;252;1704;-44
2022/12/31 11:10:24;;;;;;;;;;;23.40;34.70;;;;;;475971;249;1743;-44
2022/12/31 11:12:26;;;;;;;;;;;23.40;34.70;;;;;;458076;256;1965;-43
2022/12/31 11:14:27;;;;;;;;;;;23.40;34.70;;;;;;465867;252;1804;-44
2022/12/31 11:16:28;;;;;;;;;;;23.50;34.60;;;;;;475692;249;2231;-43
2022/12/31 11:18:30;;;;;;;;;;;23.50;34.70;;;;;;458182;256;1877;-44
2022/12/31 11:20:31;;;;;;;;;;;23.50;34.70;;;;;;465785;252;1850;-44
2022/12/31 11:22:32;;;;;;;;;;;23.50;34.70;;;;;;475768;249;2087;-43
2022/12/31 11:24:34;;;;;;;;;;;23.40;34.80;;;;;;458153;257;1720;-44
2022/12/31 11:26:35;;;;;;;;;;;23.40;34.80;;;;;;465607;252;2083;-43
2022/12/31 11:28:36;;;;;;;;;;;23.30;35.00;;;;;;475801;249;1746;-43
2022/12/31 11:30:38;;;;;;;;;;;23.10;35.30;;;;;;458114;257;1865;-43
2022/12/31 11:32:39;;;;;;;;;;;22.90;35.70;;;;;;465771;255;2269;-44
2022/12/31 11:34:41;;;;;;;;;;;22.60;36.00;;;;;;475833;249;1840;-43
2022/12/31 11:36:42;;;;;;;;;;;22.50;36.30;;;;;;458057;257;2205;-44
2022/12/31 11:38:43;;;;;;;;;;;22.40;36.50;;;;;;465914;252;1892;-43
2022/12/31 11:40:46;;;;;;;;;;;22.30;36.70;;;;;;476033;249;2219;-43
2022/12/31 11:42:46;;;;;;;;;;;22.20;36.90;;;;;;458456;257;2229;-43
2022/12/31 11:44:47;;;;;;;;;;;22.20;37.00;;;;;;466090;252;1878;-43
2022/12/31 11:46:49;;;;;;;;;;;22.10;37.00;;;;;;475995;249;1569;-44
2022/12/31 11:48:50;;;;;;;;;;;22.00;37.20;;;;;;458232;257;2225;-44
2022/12/31 11:50:51;;;;;;;;;;;22.00;37.30;;;;;;465912;252;1986;-43
2022/12/31 11:52:53;;;;;;;;;;;22.00;37.30;;;;;;476102;249;2129;-43
2022/12/31 11:54:54;;;;;;;;;;;22.00;37.40;;;;;;458268;256;2021;-43
2022/12/31 11:56:55;;;;;;;;;;;21.90;37.40;;;;;;465876;252;2196;-44
2022/12/31 11:58:57;;;;;;;;;;;21.90;37.50;;;;;;475780;249;1648;-43
2022/12/31 12:00:58;;;;;;;;;;;21.90;37.50;;;;;;458060;256;1677;-44
2022/12/31 12:02:59;;;;;;;;;;;21.90;37.60;;;;;;475703;249;1942;-43
2022/12/31 12:05:00;;;;;;;;;;;21.80;37.50;;;;;;458097;257;1844;-43
2022/12/31 12:07:02;;;;;;;;;;;21.80;37.60;;;;;;465706;252;1952;-43
2022/12/31 12:09:03;;;;;;;;;;;21.80;37.80;;;;;;475636;249;1680;-43